sensor_id;sensor_type;location;lat;lon;timestamp;P1;durP1;ratioP1;P2;durP2;ratioP2
76589;SDS011;65471;55.908;37.880;2023-05-29T00:00:47;11.48;;;5.57;;
76589;SDS011;65471;55.908;37.880;2023-05-29T00:03:14;19.05;;;5.30;;
76589;SDS011;65471;55.908;37.880;2023-05-29T00:05:41;15.18;;;6.18;;
76589;SDS011;65471;55.908;37.880;2023-05-29T00:08:08;14.70;;;5.18;;
76589;SDS011;65471;55.908;37.880;2023-05-29T00:10:35;20.55;;;5.28;;
76589;SDS011;65471;55.908;37.880;2023-05-29T00:13:03;23.73;;;5.63;;
76589;SDS011;65471;55.908;37.880;2023-05-29T00:15:33;16.70;;;5.95;;
76589;SDS011;65471;55.908;37.880;2023-05-29T00:18:00;45.45;;;6.10;;
76589;SDS011;65471;55.908;37.880;2023-05-29T00:20:28;17.70;;;6.38;;
76589;SDS011;65471;55.908;37.880;2023-05-29T00:22:55;16.55;;;5.85;;
76589;SDS011;65471;55.908;37.880;2023-05-29T00:25:22;38.40;;;5.80;;
76589;SDS011;65471;55.908;37.880;2023-05-29T00:27:49;19.20;;;5.93;;
76589;SDS011;65471;55.908;37.880;2023-05-29T00:30:16;19.05;;;5.70;;
76589;SDS011;65471;55.908;37.880;2023-05-29T00:32:43;23.17;;;5.53;;
76589;SDS011;65471;55.908;37.880;2023-05-29T00:35:10;10.77;;;5.68;;
76589;SDS011;65471;55.908;37.880;2023-05-29T00:37:37;20.13;;;4.95;;
76589;SDS011;65471;55.908;37.880;2023-05-29T00:40:04;14.18;;;5.47;;
76589;SDS011;65471;55.908;37.880;2023-05-29T00:45:00;9.80;;;5.43;;
76589;SDS011;65471;55.908;37.880;2023-05-29T00:47:30;17.83;;;5.68;;
76589;SDS011;65471;55.908;37.880;2023-05-29T00:49:57;14.93;;;5.38;;
76589;SDS011;65471;55.908;37.880;2023-05-29T00:52:25;14.70;;;5.57;;
76589;SDS011;65471;55.908;37.880;2023-05-29T00:54:54;16.87;;;6.50;;
76589;SDS011;65471;55.908;37.880;2023-05-29T00:57:22;15.07;;;5.20;;
76589;SDS011;65471;55.908;37.880;2023-05-29T00:59:49;14.80;;;5.53;;
76589;SDS011;65471;55.908;37.880;2023-05-29T01:02:17;13.77;;;5.07;;
76589;SDS011;65471;55.908;37.880;2023-05-29T01:04:45;9.07;;;5.65;;
76589;SDS011;65471;55.908;37.880;2023-05-29T01:07:12;14.68;;;5.07;;
76589;SDS011;65471;55.908;37.880;2023-05-29T01:09:40;21.25;;;5.70;;
76589;SDS011;65471;55.908;37.880;2023-05-29T01:17:27;14.40;;;5.75;;
76589;SDS011;65471;55.908;37.880;2023-05-29T01:34:54;22.38;;;5.22;;
76589;SDS011;65471;55.908;37.880;2023-05-29T01:37:21;15.52;;;5.43;;
76589;SDS011;65471;55.908;37.880;2023-05-29T01:39:48;15.80;;;4.85;;
76589;SDS011;65471;55.908;37.880;2023-05-29T01:42:15;11.65;;;4.95;;
76589;SDS011;65471;55.908;37.880;2023-05-29T01:44:42;12.00;;;4.82;;
76589;SDS011;65471;55.908;37.880;2023-05-29T01:47:10;17.95;;;5.20;;
76589;SDS011;65471;55.908;37.880;2023-05-29T01:49:37;17.50;;;5.28;;
76589;SDS011;65471;55.908;37.880;2023-05-29T01:52:05;12.40;;;5.23;;
76589;SDS011;65471;55.908;37.880;2023-05-29T01:54:32;20.77;;;6.68;;
76589;SDS011;65471;55.908;37.880;2023-05-29T01:56:59;16.00;;;5.40;;
76589;SDS011;65471;55.908;37.880;2023-05-29T01:59:28;30.17;;;4.78;;
76589;SDS011;65471;55.908;37.880;2023-05-29T02:01:56;11.43;;;5.10;;
76589;SDS011;65471;55.908;37.880;2023-05-29T02:04:23;18.77;;;4.95;;
76589;SDS011;65471;55.908;37.880;2023-05-29T02:06:51;15.27;;;5.20;;
76589;SDS011;65471;55.908;37.880;2023-05-29T02:09:19;16.70;;;4.60;;
76589;SDS011;65471;55.908;37.880;2023-05-29T02:11:49;10.07;;;5.18;;
76589;SDS011;65471;55.908;37.880;2023-05-29T02:14:16;13.10;;;5.30;;
76589;SDS011;65471;55.908;37.880;2023-05-29T02:16:43;16.65;;;5.18;;
76589;SDS011;65471;55.908;37.880;2023-05-29T02:19:12;26.88;;;5.00;;
76589;SDS011;65471;55.908;37.880;2023-05-29T02:21:38;16.50;;;5.07;;
76589;SDS011;65471;55.908;37.880;2023-05-29T02:24:07;11.02;;;5.38;;
76589;SDS011;65471;55.908;37.880;2023-05-29T02:26:34;12.73;;;6.28;;
76589;SDS011;65471;55.908;37.880;2023-05-29T02:29:03;9.45;;;4.35;;
76589;SDS011;65471;55.908;37.880;2023-05-29T02:31:32;12.52;;;5.53;;
76589;SDS011;65471;55.908;37.880;2023-05-29T02:33:59;20.80;;;6.30;;
76589;SDS011;65471;55.908;37.880;2023-05-29T02:36:26;14.15;;;5.45;;
76589;SDS011;65471;55.908;37.880;2023-05-29T02:38:54;15.40;;;5.85;;
76589;SDS011;65471;55.908;37.880;2023-05-29T02:41:21;13.52;;;6.82;;
76589;SDS011;65471;55.908;37.880;2023-05-29T02:43:48;27.42;;;5.90;;
76589;SDS011;65471;55.908;37.880;2023-05-29T02:46:15;20.33;;;7.10;;
76589;SDS011;65471;55.908;37.880;2023-05-29T02:48:42;24.88;;;7.35;;
76589;SDS011;65471;55.908;37.880;2023-05-29T02:51:09;18.95;;;6.47;;
76589;SDS011;65471;55.908;37.880;2023-05-29T02:53:36;12.90;;;6.60;;
76589;SDS011;65471;55.908;37.880;2023-05-29T02:56:03;16.38;;;6.38;;
76589;SDS011;65471;55.908;37.880;2023-05-29T02:58:30;16.95;;;5.53;;
76589;SDS011;65471;55.908;37.880;2023-05-29T03:00:57;13.77;;;6.03;;
76589;SDS011;65471;55.908;37.880;2023-05-29T03:03:25;15.18;;;5.07;;
76589;SDS011;65471;55.908;37.880;2023-05-29T03:05:52;15.27;;;4.47;;
76589;SDS011;65471;55.908;37.880;2023-05-29T03:08:19;13.65;;;5.25;;
76589;SDS011;65471;55.908;37.880;2023-05-29T03:10:46;17.30;;;4.72;;
76589;SDS011;65471;55.908;37.880;2023-05-29T03:13:14;11.70;;;3.83;;
76589;SDS011;65471;55.908;37.880;2023-05-29T03:15:41;14.52;;;4.07;;
76589;SDS011;65471;55.908;37.880;2023-05-29T03:18:08;10.38;;;4.00;;
76589;SDS011;65471;55.908;37.880;2023-05-29T03:20:35;14.32;;;4.28;;
76589;SDS011;65471;55.908;37.880;2023-05-29T03:23:02;11.45;;;4.60;;
76589;SDS011;65471;55.908;37.880;2023-05-29T03:25:29;6.05;;;3.70;;
76589;SDS011;65471;55.908;37.880;2023-05-29T03:27:56;9.30;;;4.57;;
76589;SDS011;65471;55.908;37.880;2023-05-29T03:30:23;21.08;;;4.30;;
76589;SDS011;65471;55.908;37.880;2023-05-29T03:32:50;16.35;;;4.18;;
76589;SDS011;65471;55.908;37.880;2023-05-29T03:35:17;14.18;;;4.72;;
76589;SDS011;65471;55.908;37.880;2023-05-29T03:37:44;8.50;;;4.20;;
76589;SDS011;65471;55.908;37.880;2023-05-29T03:40:11;10.02;;;4.35;;
76589;SDS011;65471;55.908;37.880;2023-05-29T03:42:38;8.57;;;4.15;;
76589;SDS011;65471;55.908;37.880;2023-05-29T03:45:05;13.73;;;4.28;;
76589;SDS011;65471;55.908;37.880;2023-05-29T03:47:33;17.98;;;4.35;;
76589;SDS011;65471;55.908;37.880;2023-05-29T03:50:00;13.60;;;3.75;;
76589;SDS011;65471;55.908;37.880;2023-05-29T03:52:27;13.48;;;3.95;;
76589;SDS011;65471;55.908;37.880;2023-05-29T03:54:54;7.93;;;3.90;;
76589;SDS011;65471;55.908;37.880;2023-05-29T03:57:21;7.88;;;4.20;;
76589;SDS011;65471;55.908;37.880;2023-05-29T03:59:48;5.57;;;3.72;;
76589;SDS011;65471;55.908;37.880;2023-05-29T04:02:15;10.63;;;3.90;;
76589;SDS011;65471;55.908;37.880;2023-05-29T04:04:45;10.10;;;3.60;;
76589;SDS011;65471;55.908;37.880;2023-05-29T04:07:12;12.40;;;4.05;;
76589;SDS011;65471;55.908;37.880;2023-05-29T04:09:39;22.13;;;3.75;;
76589;SDS011;65471;55.908;37.880;2023-05-29T04:12:06;11.23;;;3.50;;
76589;SDS011;65471;55.908;37.880;2023-05-29T04:14:33;17.13;;;3.70;;
76589;SDS011;65471;55.908;37.880;2023-05-29T04:17:00;7.57;;;3.17;;
76589;SDS011;65471;55.908;37.880;2023-05-29T04:19:27;18.50;;;3.75;;
76589;SDS011;65471;55.908;37.880;2023-05-29T04:21:54;9.35;;;3.97;;
76589;SDS011;65471;55.908;37.880;2023-05-29T04:24:21;15.43;;;3.65;;
76589;SDS011;65471;55.908;37.880;2023-05-29T04:26:48;11.80;;;3.20;;
76589;SDS011;65471;55.908;37.880;2023-05-29T04:29:15;18.17;;;3.90;;
76589;SDS011;65471;55.908;37.880;2023-05-29T04:31:42;5.18;;;3.30;;
76589;SDS011;65471;55.908;37.880;2023-05-29T04:34:09;6.45;;;3.38;;
76589;SDS011;65471;55.908;37.880;2023-05-29T04:36:37;9.25;;;3.47;;
76589;SDS011;65471;55.908;37.880;2023-05-29T04:39:07;13.10;;;3.85;;
76589;SDS011;65471;55.908;37.880;2023-05-29T04:41:34;9.52;;;3.22;;
76589;SDS011;65471;55.908;37.880;2023-05-29T04:44:02;7.00;;;3.17;;
76589;SDS011;65471;55.908;37.880;2023-05-29T04:46:30;10.23;;;3.00;;
76589;SDS011;65471;55.908;37.880;2023-05-29T04:48:57;6.05;;;3.65;;
76589;SDS011;65471;55.908;37.880;2023-05-29T04:51:24;13.55;;;3.80;;
76589;SDS011;65471;55.908;37.880;2023-05-29T04:53:51;9.90;;;3.85;;
76589;SDS011;65471;55.908;37.880;2023-05-29T04:56:18;11.32;;;3.92;;
76589;SDS011;65471;55.908;37.880;2023-05-29T04:58:45;16.02;;;3.55;;
76589;SDS011;65471;55.908;37.880;2023-05-29T05:01:13;14.48;;;3.47;;
76589;SDS011;65471;55.908;37.880;2023-05-29T05:03:41;6.85;;;3.90;;
76589;SDS011;65471;55.908;37.880;2023-05-29T05:06:09;11.50;;;3.60;;
76589;SDS011;65471;55.908;37.880;2023-05-29T05:08:36;9.13;;;3.27;;
76589;SDS011;65471;55.908;37.880;2023-05-29T05:11:03;10.07;;;3.20;;
76589;SDS011;65471;55.908;37.880;2023-05-29T05:13:33;8.20;;;3.03;;
76589;SDS011;65471;55.908;37.880;2023-05-29T05:16:00;8.18;;;3.25;;
76589;SDS011;65471;55.908;37.880;2023-05-29T05:18:27;19.27;;;3.40;;
76589;SDS011;65471;55.908;37.880;2023-05-29T05:20:54;11.00;;;4.05;;
76589;SDS011;65471;55.908;37.880;2023-05-29T05:23:22;3.67;;;3.38;;
76589;SDS011;65471;55.908;37.880;2023-05-29T05:25:49;12.00;;;3.47;;
76589;SDS011;65471;55.908;37.880;2023-05-29T05:28:16;5.13;;;3.50;;
76589;SDS011;65471;55.908;37.880;2023-05-29T05:30:43;11.02;;;3.72;;
76589;SDS011;65471;55.908;37.880;2023-05-29T05:33:10;5.88;;;3.10;;
76589;SDS011;65471;55.908;37.880;2023-05-29T05:35:37;9.90;;;3.47;;
76589;SDS011;65471;55.908;37.880;2023-05-29T05:38:04;12.18;;;3.22;;
76589;SDS011;65471;55.908;37.880;2023-05-29T05:40:31;7.50;;;3.33;;
76589;SDS011;65471;55.908;37.880;2023-05-29T05:42:59;10.55;;;2.65;;
76589;SDS011;65471;55.908;37.880;2023-05-29T05:45:25;6.35;;;3.00;;
76589;SDS011;65471;55.908;37.880;2023-05-29T05:47:52;6.95;;;2.80;;
76589;SDS011;65471;55.908;37.880;2023-05-29T05:50:19;9.70;;;3.10;;
76589;SDS011;65471;55.908;37.880;2023-05-29T05:52:47;2.70;;;2.50;;
76589;SDS011;65471;55.908;37.880;2023-05-29T05:55:14;12.55;;;2.70;;
76589;SDS011;65471;55.908;37.880;2023-05-29T05:57:41;6.20;;;2.30;;
76589;SDS011;65471;55.908;37.880;2023-05-29T06:00:09;5.80;;;2.47;;
76589;SDS011;65471;55.908;37.880;2023-05-29T06:02:39;6.70;;;2.60;;
76589;SDS011;65471;55.908;37.880;2023-05-29T06:05:11;8.25;;;3.30;;
76589;SDS011;65471;55.908;37.880;2023-05-29T06:07:38;6.70;;;2.83;;
76589;SDS011;65471;55.908;37.880;2023-05-29T06:10:05;7.00;;;2.90;;
76589;SDS011;65471;55.908;37.880;2023-05-29T06:12:33;11.07;;;2.63;;
76589;SDS011;65471;55.908;37.880;2023-05-29T06:15:01;2.83;;;2.63;;
76589;SDS011;65471;55.908;37.880;2023-05-29T06:17:30;5.68;;;2.42;;
76589;SDS011;65471;55.908;37.880;2023-05-29T06:19:58;9.65;;;2.13;;
76589;SDS011;65471;55.908;37.880;2023-05-29T06:22:25;2.80;;;2.25;;
76589;SDS011;65471;55.908;37.880;2023-05-29T06:24:52;8.55;;;2.63;;
76589;SDS011;65471;55.908;37.880;2023-05-29T06:27:19;4.00;;;2.47;;
76589;SDS011;65471;55.908;37.880;2023-05-29T06:29:46;2.95;;;2.33;;
76589;SDS011;65471;55.908;37.880;2023-05-29T06:32:13;4.50;;;2.20;;
76589;SDS011;65471;55.908;37.880;2023-05-29T06:34:40;6.32;;;2.90;;
76589;SDS011;65471;55.908;37.880;2023-05-29T06:37:07;8.05;;;1.90;;
76589;SDS011;65471;55.908;37.880;2023-05-29T06:39:35;10.13;;;2.33;;
76589;SDS011;65471;55.908;37.880;2023-05-29T06:42:02;8.25;;;1.83;;
76589;SDS011;65471;55.908;37.880;2023-05-29T06:44:30;6.28;;;1.90;;
76589;SDS011;65471;55.908;37.880;2023-05-29T06:46:57;3.92;;;2.10;;
76589;SDS011;65471;55.908;37.880;2023-05-29T06:49:23;4.63;;;2.25;;
76589;SDS011;65471;55.908;37.880;2023-05-29T06:51:50;2.88;;;2.10;;
76589;SDS011;65471;55.908;37.880;2023-05-29T06:54:17;3.25;;;2.20;;
76589;SDS011;65471;55.908;37.880;2023-05-29T06:56:44;2.08;;;1.98;;
76589;SDS011;65471;55.908;37.880;2023-05-29T06:59:27;18.50;;;2.25;;
76589;SDS011;65471;55.908;37.880;2023-05-29T07:01:57;4.90;;;2.35;;
76589;SDS011;65471;55.908;37.880;2023-05-29T07:04:24;7.70;;;2.10;;
76589;SDS011;65471;55.908;37.880;2023-05-29T07:06:51;6.40;;;2.22;;
76589;SDS011;65471;55.908;37.880;2023-05-29T07:09:18;1.98;;;1.88;;
76589;SDS011;65471;55.908;37.880;2023-05-29T07:11:45;11.35;;;2.00;;
76589;SDS011;65471;55.908;37.880;2023-05-29T07:14:12;7.10;;;2.20;;
76589;SDS011;65471;55.908;37.880;2023-05-29T07:16:39;2.30;;;2.10;;
76589;SDS011;65471;55.908;37.880;2023-05-29T07:19:06;4.10;;;2.25;;
76589;SDS011;65471;55.908;37.880;2023-05-29T07:21:45;2.13;;;2.03;;
76589;SDS011;65471;55.908;37.880;2023-05-29T07:24:12;9.18;;;2.50;;
76589;SDS011;65471;55.908;37.880;2023-05-29T07:26:39;8.38;;;2.75;;
76589;SDS011;65471;55.908;37.880;2023-05-29T07:29:06;5.93;;;2.38;;
76589;SDS011;65471;55.908;37.880;2023-05-29T07:31:33;4.70;;;1.90;;
76589;SDS011;65471;55.908;37.880;2023-05-29T07:34:00;2.33;;;2.00;;
76589;SDS011;65471;55.908;37.880;2023-05-29T07:36:29;6.30;;;2.30;;
76589;SDS011;65471;55.908;37.880;2023-05-29T07:38:57;2.92;;;2.50;;
76589;SDS011;65471;55.908;37.880;2023-05-29T07:41:25;2.65;;;2.20;;
76589;SDS011;65471;55.908;37.880;2023-05-29T07:43:55;5.82;;;2.40;;
76589;SDS011;65471;55.908;37.880;2023-05-29T07:46:23;9.15;;;2.15;;
76589;SDS011;65471;55.908;37.880;2023-05-29T07:48:50;2.47;;;2.25;;
76589;SDS011;65471;55.908;37.880;2023-05-29T07:51:17;6.88;;;2.30;;
76589;SDS011;65471;55.908;37.880;2023-05-29T07:53:44;12.02;;;3.42;;
76589;SDS011;65471;55.908;37.880;2023-05-29T07:56:13;9.43;;;2.35;;
76589;SDS011;65471;55.908;37.880;2023-05-29T07:58:40;7.13;;;2.13;;
76589;SDS011;65471;55.908;37.880;2023-05-29T08:01:08;9.40;;;2.63;;
76589;SDS011;65471;55.908;37.880;2023-05-29T08:03:35;7.07;;;2.30;;
76589;SDS011;65471;55.908;37.880;2023-05-29T08:06:02;5.50;;;2.78;;
76589;SDS011;65471;55.908;37.880;2023-05-29T08:08:29;5.53;;;2.80;;
76589;SDS011;65471;55.908;37.880;2023-05-29T08:10:56;8.05;;;2.63;;
76589;SDS011;65471;55.908;37.880;2023-05-29T08:13:23;2.30;;;1.88;;
76589;SDS011;65471;55.908;37.880;2023-05-29T08:15:50;5.53;;;2.47;;
76589;SDS011;65471;55.908;37.880;2023-05-29T08:18:18;8.23;;;2.70;;
76589;SDS011;65471;55.908;37.880;2023-05-29T08:20:45;3.60;;;2.65;;
76589;SDS011;65471;55.908;37.880;2023-05-29T08:23:12;16.38;;;2.60;;
76589;SDS011;65471;55.908;37.880;2023-05-29T08:25:38;3.53;;;3.15;;
76589;SDS011;65471;55.908;37.880;2023-05-29T08:28:05;14.35;;;2.65;;
76589;SDS011;65471;55.908;37.880;2023-05-29T08:30:32;6.18;;;2.47;;
76589;SDS011;65471;55.908;37.880;2023-05-29T08:32:59;8.18;;;2.78;;
76589;SDS011;65471;55.908;37.880;2023-05-29T08:35:26;11.68;;;2.40;;
76589;SDS011;65471;55.908;37.880;2023-05-29T08:37:54;8.10;;;2.67;;
76589;SDS011;65471;55.908;37.880;2023-05-29T08:40:21;4.68;;;2.60;;
76589;SDS011;65471;55.908;37.880;2023-05-29T08:42:59;9.13;;;2.50;;
76589;SDS011;65471;55.908;37.880;2023-05-29T08:45:32;3.75;;;2.60;;
76589;SDS011;65471;55.908;37.880;2023-05-29T08:48:01;9.55;;;2.38;;
76589;SDS011;65471;55.908;37.880;2023-05-29T08:50:29;3.67;;;2.53;;
76589;SDS011;65471;55.908;37.880;2023-05-29T08:52:56;20.35;;;2.72;;
76589;SDS011;65471;55.908;37.880;2023-05-29T08:55:24;8.45;;;3.15;;
76589;SDS011;65471;55.908;37.880;2023-05-29T08:57:51;3.40;;;3.10;;
76589;SDS011;65471;55.908;37.880;2023-05-29T09:00:18;7.65;;;2.80;;
76589;SDS011;65471;55.908;37.880;2023-05-29T09:05:13;9.38;;;2.72;;
76589;SDS011;65471;55.908;37.880;2023-05-29T09:07:40;6.72;;;2.70;;
76589;SDS011;65471;55.908;37.880;2023-05-29T09:10:08;5.20;;;2.47;;
76589;SDS011;65471;55.908;37.880;2023-05-29T09:12:35;4.85;;;2.50;;
76589;SDS011;65471;55.908;37.880;2023-05-29T09:15:06;5.83;;;3.10;;
76589;SDS011;65471;55.908;37.880;2023-05-29T09:17:43;3.25;;;2.95;;
76589;SDS011;65471;55.908;37.880;2023-05-29T09:20:16;4.55;;;2.60;;
76589;SDS011;65471;55.908;37.880;2023-05-29T09:25:29;10.93;;;2.95;;
76589;SDS011;65471;55.908;37.880;2023-05-29T09:28:00;9.98;;;3.28;;
76589;SDS011;65471;55.908;37.880;2023-05-29T09:33:55;5.35;;;2.72;;
76589;SDS011;65471;55.908;37.880;2023-05-29T09:36:28;5.70;;;2.60;;
76589;SDS011;65471;55.908;37.880;2023-05-29T09:38:55;6.50;;;2.75;;
76589;SDS011;65471;55.908;37.880;2023-05-29T09:41:44;4.88;;;2.90;;
76589;SDS011;65471;55.908;37.880;2023-05-29T09:44:12;6.55;;;3.22;;
76589;SDS011;65471;55.908;37.880;2023-05-29T09:46:41;5.35;;;2.67;;
76589;SDS011;65471;55.908;37.880;2023-05-29T09:51:40;4.68;;;2.80;;
76589;SDS011;65471;55.908;37.880;2023-05-29T09:54:12;9.63;;;2.83;;
76589;SDS011;65471;55.908;37.880;2023-05-29T09:56:43;5.93;;;2.60;;
76589;SDS011;65471;55.908;37.880;2023-05-29T09:59:11;7.20;;;2.83;;
76589;SDS011;65471;55.908;37.880;2023-05-29T10:01:40;8.82;;;2.80;;
76589;SDS011;65471;55.908;37.880;2023-05-29T10:04:13;9.45;;;3.08;;
76589;SDS011;65471;55.908;37.880;2023-05-29T10:06:45;10.07;;;3.80;;
76589;SDS011;65471;55.908;37.880;2023-05-29T10:09:15;4.38;;;2.80;;
76589;SDS011;65471;55.908;37.880;2023-05-29T10:11:46;5.55;;;3.15;;
76589;SDS011;65471;55.908;37.880;2023-05-29T10:14:16;10.32;;;3.13;;
76589;SDS011;65471;55.908;37.880;2023-05-29T10:16:49;4.57;;;3.00;;
76589;SDS011;65471;55.908;37.880;2023-05-29T10:19:24;7.53;;;3.03;;
76589;SDS011;65471;55.908;37.880;2023-05-29T10:21:53;8.52;;;3.10;;
76589;SDS011;65471;55.908;37.880;2023-05-29T10:24:22;12.27;;;3.75;;
76589;SDS011;65471;55.908;37.880;2023-05-29T10:26:51;4.28;;;3.25;;
76589;SDS011;65471;55.908;37.880;2023-05-29T10:32:20;4.32;;;2.85;;
76589;SDS011;65471;55.908;37.880;2023-05-29T10:37:44;10.25;;;3.05;;
76589;SDS011;65471;55.908;37.880;2023-05-29T10:40:16;8.60;;;3.20;;
76589;SDS011;65471;55.908;37.880;2023-05-29T10:42:50;7.22;;;2.85;;
76589;SDS011;65471;55.908;37.880;2023-05-29T10:47:54;8.05;;;2.70;;
76589;SDS011;65471;55.908;37.880;2023-05-29T10:50:40;10.57;;;3.15;;
76589;SDS011;65471;55.908;37.880;2023-05-29T10:53:16;4.57;;;2.70;;
76589;SDS011;65471;55.908;37.880;2023-05-29T10:55:44;7.65;;;2.80;;
76589;SDS011;65471;55.908;37.880;2023-05-29T10:58:14;5.07;;;2.40;;
76589;SDS011;65471;55.908;37.880;2023-05-29T11:00:44;6.90;;;2.83;;
76589;SDS011;65471;55.908;37.880;2023-05-29T11:03:17;5.82;;;3.00;;
76589;SDS011;65471;55.908;37.880;2023-05-29T11:05:57;15.68;;;3.45;;
76589;SDS011;65471;55.908;37.880;2023-05-29T11:08:33;11.90;;;2.60;;
76589;SDS011;65471;55.908;37.880;2023-05-29T11:13:58;6.32;;;2.55;;
76589;SDS011;65471;55.908;37.880;2023-05-29T11:18:56;4.35;;;2.50;;
76589;SDS011;65471;55.908;37.880;2023-05-29T11:21:30;13.02;;;2.88;;
76589;SDS011;65471;55.908;37.880;2023-05-29T11:24:15;9.57;;;3.20;;
76589;SDS011;65471;55.908;37.880;2023-05-29T11:26:46;9.13;;;3.05;;
76589;SDS011;65471;55.908;37.880;2023-05-29T11:29:14;11.35;;;2.75;;
76589;SDS011;65471;55.908;37.880;2023-05-29T11:31:41;13.30;;;2.60;;
76589;SDS011;65471;55.908;37.880;2023-05-29T11:34:14;12.43;;;2.83;;
76589;SDS011;65471;55.908;37.880;2023-05-29T11:36:41;19.90;;;3.25;;
76589;SDS011;65471;55.908;37.880;2023-05-29T11:39:09;8.60;;;2.67;;
76589;SDS011;65471;55.908;37.880;2023-05-29T11:41:37;2.88;;;2.65;;
76589;SDS011;65471;55.908;37.880;2023-05-29T11:44:04;12.65;;;2.60;;
76589;SDS011;65471;55.908;37.880;2023-05-29T11:46:34;7.75;;;3.03;;
76589;SDS011;65471;55.908;37.880;2023-05-29T11:49:01;7.90;;;2.92;;
76589;SDS011;65471;55.908;37.880;2023-05-29T11:51:28;6.70;;;3.45;;
76589;SDS011;65471;55.908;37.880;2023-05-29T11:53:55;3.93;;;2.70;;
76589;SDS011;65471;55.908;37.880;2023-05-29T11:56:25;10.93;;;2.97;;
76589;SDS011;65471;55.908;37.880;2023-05-29T11:58:54;13.20;;;2.80;;
76589;SDS011;65471;55.908;37.880;2023-05-29T12:01:23;9.35;;;3.15;;
76589;SDS011;65471;55.908;37.880;2023-05-29T12:03:51;13.75;;;3.35;;
76589;SDS011;65471;55.908;37.880;2023-05-29T12:06:32;8.02;;;2.55;;
76589;SDS011;65471;55.908;37.880;2023-05-29T12:09:00;19.70;;;3.50;;
76589;SDS011;65471;55.908;37.880;2023-05-29T12:11:28;6.53;;;3.35;;
76589;SDS011;65471;55.908;37.880;2023-05-29T12:13:56;8.40;;;3.13;;
76589;SDS011;65471;55.908;37.880;2023-05-29T12:16:24;11.55;;;3.80;;
76589;SDS011;65471;55.908;37.880;2023-05-29T12:18:53;6.10;;;3.05;;
76589;SDS011;65471;55.908;37.880;2023-05-29T12:21:21;8.55;;;2.83;;
76589;SDS011;65471;55.908;37.880;2023-05-29T12:26:32;4.38;;;2.88;;
76589;SDS011;65471;55.908;37.880;2023-05-29T12:29:02;5.85;;;2.50;;
76589;SDS011;65471;55.908;37.880;2023-05-29T12:31:31;3.60;;;3.10;;
76589;SDS011;65471;55.908;37.880;2023-05-29T12:36:34;4.15;;;2.90;;
76589;SDS011;65471;55.908;37.880;2023-05-29T12:39:04;10.63;;;3.15;;
76589;SDS011;65471;55.908;37.880;2023-05-29T12:41:35;6.07;;;2.92;;
76589;SDS011;65471;55.908;37.880;2023-05-29T12:44:04;7.53;;;3.15;;
76589;SDS011;65471;55.908;37.880;2023-05-29T12:46:37;11.30;;;3.05;;
76589;SDS011;65471;55.908;37.880;2023-05-29T12:49:13;9.38;;;4.50;;
76589;SDS011;65471;55.908;37.880;2023-05-29T12:51:47;11.50;;;3.15;;
76589;SDS011;65471;55.908;37.880;2023-05-29T12:54:14;8.85;;;3.30;;
76589;SDS011;65471;55.908;37.880;2023-05-29T12:59:09;13.45;;;3.40;;
76589;SDS011;65471;55.908;37.880;2023-05-29T13:01:38;15.25;;;3.42;;
76589;SDS011;65471;55.908;37.880;2023-05-29T13:04:06;12.63;;;3.38;;
76589;SDS011;65471;55.908;37.880;2023-05-29T13:09:57;18.88;;;3.60;;
76589;SDS011;65471;55.908;37.880;2023-05-29T13:12:25;4.88;;;3.30;;
76589;SDS011;65471;55.908;37.880;2023-05-29T13:15:12;8.85;;;3.22;;
76589;SDS011;65471;55.908;37.880;2023-05-29T13:21:41;21.85;;;4.75;;
76589;SDS011;65471;55.908;37.880;2023-05-29T13:24:33;8.93;;;3.78;;
76589;SDS011;65471;55.908;37.880;2023-05-29T13:27:18;24.00;;;3.65;;
76589;SDS011;65471;55.908;37.880;2023-05-29T13:30:04;6.97;;;2.90;;
76589;SDS011;65471;55.908;37.880;2023-05-29T13:35:02;11.45;;;2.90;;
76589;SDS011;65471;55.908;37.880;2023-05-29T13:37:49;16.17;;;3.55;;
76589;SDS011;65471;55.908;37.880;2023-05-29T13:40:35;14.73;;;3.10;;
76589;SDS011;65471;55.908;37.880;2023-05-29T13:43:21;7.68;;;3.00;;
76589;SDS011;65471;55.908;37.880;2023-05-29T13:46:13;5.75;;;3.03;;
76589;SDS011;65471;55.908;37.880;2023-05-29T13:48:59;16.30;;;3.53;;
76589;SDS011;65471;55.908;37.880;2023-05-29T13:51:46;7.82;;;3.53;;
76589;SDS011;65471;55.908;37.880;2023-05-29T13:54:33;5.18;;;2.75;;
76589;SDS011;65471;55.908;37.880;2023-05-29T13:57:21;15.45;;;2.80;;
76589;SDS011;65471;55.908;37.880;2023-05-29T14:00:07;13.15;;;3.40;;
76589;SDS011;65471;55.908;37.880;2023-05-29T14:02:56;12.38;;;2.97;;
76589;SDS011;65471;55.908;37.880;2023-05-29T14:05:23;10.98;;;3.10;;
76589;SDS011;65471;55.908;37.880;2023-05-29T14:07:50;10.65;;;2.85;;
76589;SDS011;65471;55.908;37.880;2023-05-29T14:10:16;16.35;;;3.08;;
76589;SDS011;65471;55.908;37.880;2023-05-29T14:12:45;18.83;;;3.33;;
76589;SDS011;65471;55.908;37.880;2023-05-29T14:15:12;14.30;;;3.05;;
76589;SDS011;65471;55.908;37.880;2023-05-29T14:17:39;5.55;;;2.72;;
76589;SDS011;65471;55.908;37.880;2023-05-29T14:20:06;6.10;;;3.20;;
76589;SDS011;65471;55.908;37.880;2023-05-29T14:22:35;8.27;;;3.40;;
76589;SDS011;65471;55.908;37.880;2023-05-29T14:25:03;6.88;;;3.17;;
76589;SDS011;65471;55.908;37.880;2023-05-29T14:27:32;12.88;;;3.55;;
76589;SDS011;65471;55.908;37.880;2023-05-29T14:29:59;7.20;;;3.10;;
76589;SDS011;65471;55.908;37.880;2023-05-29T14:32:32;7.97;;;3.00;;
76589;SDS011;65471;55.908;37.880;2023-05-29T14:35:00;11.35;;;3.33;;
76589;SDS011;65471;55.908;37.880;2023-05-29T14:37:31;8.63;;;2.78;;
76589;SDS011;65471;55.908;37.880;2023-05-29T14:39:58;8.60;;;2.78;;
76589;SDS011;65471;55.908;37.880;2023-05-29T14:42:25;6.03;;;2.90;;
76589;SDS011;65471;55.908;37.880;2023-05-29T14:44:52;13.35;;;3.15;;
76589;SDS011;65471;55.908;37.880;2023-05-29T14:47:19;14.82;;;2.95;;
76589;SDS011;65471;55.908;37.880;2023-05-29T14:49:46;5.60;;;3.25;;
76589;SDS011;65471;55.908;37.880;2023-05-29T14:52:13;9.10;;;2.92;;
76589;SDS011;65471;55.908;37.880;2023-05-29T14:54:40;6.88;;;2.70;;
76589;SDS011;65471;55.908;37.880;2023-05-29T14:57:07;18.98;;;3.42;;
76589;SDS011;65471;55.908;37.880;2023-05-29T14:59:34;13.98;;;3.30;;
76589;SDS011;65471;55.908;37.880;2023-05-29T15:02:01;26.35;;;3.67;;
76589;SDS011;65471;55.908;37.880;2023-05-29T15:04:28;18.13;;;3.30;;
76589;SDS011;65471;55.908;37.880;2023-05-29T15:06:55;5.03;;;2.65;;
76589;SDS011;65471;55.908;37.880;2023-05-29T15:09:32;16.70;;;3.28;;
76589;SDS011;65471;55.908;37.880;2023-05-29T15:12:00;16.40;;;2.95;;
76589;SDS011;65471;55.908;37.880;2023-05-29T15:14:27;4.85;;;2.72;;
76589;SDS011;65471;55.908;37.880;2023-05-29T15:16:55;7.72;;;2.92;;
76589;SDS011;65471;55.908;37.880;2023-05-29T15:19:22;8.87;;;2.80;;
76589;SDS011;65471;55.908;37.880;2023-05-29T15:21:49;11.82;;;3.10;;
76589;SDS011;65471;55.908;37.880;2023-05-29T15:24:16;20.75;;;3.33;;
76589;SDS011;65471;55.908;37.880;2023-05-29T15:26:43;10.02;;;3.13;;
76589;SDS011;65471;55.908;37.880;2023-05-29T15:29:10;11.90;;;3.70;;
76589;SDS011;65471;55.908;37.880;2023-05-29T15:31:37;6.13;;;3.13;;
76589;SDS011;65471;55.908;37.880;2023-05-29T15:34:05;16.40;;;3.33;;
76589;SDS011;65471;55.908;37.880;2023-05-29T15:36:32;14.20;;;3.55;;
76589;SDS011;65471;55.908;37.880;2023-05-29T15:38:59;12.07;;;3.10;;
76589;SDS011;65471;55.908;37.880;2023-05-29T15:41:26;6.90;;;3.13;;
76589;SDS011;65471;55.908;37.880;2023-05-29T15:43:55;15.25;;;3.50;;